sensor_id;sensor_type;location;lat;lon;timestamp;P1;durP1;ratioP1;P2;durP2;ratioP2
20802;SDS011;10562;-33.856;151.182;2023-07-31T00:00:58;1.33;;;0.80;;
20802;SDS011;10562;-33.856;151.182;2023-07-31T00:03:30;2.42;;;0.60;;
20802;SDS011;10562;-33.856;151.182;2023-07-31T00:06:01;2.33;;;0.60;;
20802;SDS011;10562;-33.856;151.182;2023-07-31T00:08:32;4.93;;;0.80;;
20802;SDS011;10562;-33.856;151.182;2023-07-31T00:11:03;3.22;;;0.73;;
20802;SDS011;10562;-33.856;151.182;2023-07-31T00:13:34;2.08;;;0.80;;
20802;SDS011;10562;-33.856;151.182;2023-07-31T00:16:04;2.60;;;0.50;;
20802;SDS011;10562;-33.856;151.182;2023-07-31T00:18:37;1.67;;;0.70;;
20802;SDS011;10562;-33.856;151.182;2023-07-31T00:21:08;1.13;;;0.60;;
20802;SDS011;10562;-33.856;151.182;2023-07-31T00:23:39;1.52;;;0.75;;
20802;SDS011;10562;-33.856;151.182;2023-07-31T00:26:10;4.63;;;0.95;;
20802;SDS011;10562;-33.856;151.182;2023-07-31T00:28:40;4.00;;;0.95;;
20802;SDS011;10562;-33.856;151.182;2023-07-31T00:31:11;3.38;;;0.80;;
20802;SDS011;10562;-33.856;151.182;2023-07-31T00:33:44;4.25;;;0.90;;
20802;SDS011;10562;-33.856;151.182;2023-07-31T00:36:15;2.42;;;0.70;;
20802;SDS011;10562;-33.856;151.182;2023-07-31T00:38:46;0.77;;;0.60;;
20802;SDS011;10562;-33.856;151.182;2023-07-31T00:41:17;5.82;;;0.82;;
20802;SDS011;10562;-33.856;151.182;2023-07-31T00:43:48;2.90;;;0.65;;
20802;SDS011;10562;-33.856;151.182;2023-07-31T00:46:19;3.63;;;0.77;;
20802;SDS011;10562;-33.856;151.182;2023-07-31T00:48:52;3.13;;;1.00;;
20802;SDS011;10562;-33.856;151.182;2023-07-31T00:51:23;2.20;;;0.63;;
20802;SDS011;10562;-33.856;151.182;2023-07-31T00:53:54;4.07;;;0.80;;
20802;SDS011;10562;-33.856;151.182;2023-07-31T00:56:25;2.28;;;0.85;;
20802;SDS011;10562;-33.856;151.182;2023-07-31T00:58:56;1.42;;;0.63;;
20802;SDS011;10562;-33.856;151.182;2023-07-31T01:01:27;3.72;;;0.70;;
20802;SDS011;10562;-33.856;151.182;2023-07-31T01:04:00;1.85;;;0.90;;
20802;SDS011;10562;-33.856;151.182;2023-07-31T01:06:33;1.20;;;0.52;;
20802;SDS011;10562;-33.856;151.182;2023-07-31T01:09:11;3.38;;;0.60;;
20802;SDS011;10562;-33.856;151.182;2023-07-31T01:11:52;1.88;;;0.70;;
20802;SDS011;10562;-33.856;151.182;2023-07-31T01:14:29;2.05;;;0.50;;
20802;SDS011;10562;-33.856;151.182;2023-07-31T01:17:00;1.95;;;0.77;;
20802;SDS011;10562;-33.856;151.182;2023-07-31T01:19:32;3.88;;;0.80;;
20802;SDS011;10562;-33.856;151.182;2023-07-31T01:22:10;1.98;;;0.82;;
20802;SDS011;10562;-33.856;151.182;2023-07-31T01:24:55;1.40;;;0.50;;
20802;SDS011;10562;-33.856;151.182;2023-07-31T01:27:38;2.20;;;0.63;;
20802;SDS011;10562;-33.856;151.182;2023-07-31T01:30:14;0.80;;;0.60;;
20802;SDS011;10562;-33.856;151.182;2023-07-31T01:32:51;2.30;;;0.60;;
20802;SDS011;10562;-33.856;151.182;2023-07-31T01:35:23;2.13;;;0.50;;
20802;SDS011;10562;-33.856;151.182;2023-07-31T01:37:54;3.42;;;0.80;;
20802;SDS011;10562;-33.856;151.182;2023-07-31T01:40:25;2.13;;;0.70;;
20802;SDS011;10562;-33.856;151.182;2023-07-31T01:42:58;2.97;;;0.60;;
20802;SDS011;10562;-33.856;151.182;2023-07-31T01:45:29;1.88;;;0.70;;
20802;SDS011;10562;-33.856;151.182;2023-07-31T01:48:00;2.67;;;0.75;;
20802;SDS011;10562;-33.856;151.182;2023-07-31T01:50:30;1.95;;;0.63;;
20802;SDS011;10562;-33.856;151.182;2023-07-31T01:53:01;2.15;;;0.82;;
20802;SDS011;10562;-33.856;151.182;2023-07-31T01:55:32;3.38;;;0.80;;
20802;SDS011;10562;-33.856;151.182;2023-07-31T01:58:05;2.78;;;0.52;;
20802;SDS011;10562;-33.856;151.182;2023-07-31T02:00:35;2.47;;;0.60;;
20802;SDS011;10562;-33.856;151.182;2023-07-31T02:03:06;2.55;;;0.73;;
20802;SDS011;10562;-33.856;151.182;2023-07-31T02:05:37;1.45;;;0.70;;
20802;SDS011;10562;-33.856;151.182;2023-07-31T02:08:14;3.65;;;0.80;;
20802;SDS011;10562;-33.856;151.182;2023-07-31T02:10:45;4.22;;;0.65;;
20802;SDS011;10562;-33.856;151.182;2023-07-31T02:13:19;3.28;;;0.80;;
20802;SDS011;10562;-33.856;151.182;2023-07-31T02:15:50;2.35;;;0.73;;
20802;SDS011;10562;-33.856;151.182;2023-07-31T02:18:20;3.60;;;0.85;;
20802;SDS011;10562;-33.856;151.182;2023-07-31T02:20:51;3.45;;;0.98;;
20802;SDS011;10562;-33.856;151.182;2023-07-31T02:23:22;1.38;;;0.60;;
20802;SDS011;10562;-33.856;151.182;2023-07-31T02:25:53;3.15;;;0.80;;
20802;SDS011;10562;-33.856;151.182;2023-07-31T02:28:28;2.70;;;0.80;;
20802;SDS011;10562;-33.856;151.182;2023-07-31T02:30:59;2.53;;;0.80;;
20802;SDS011;10562;-33.856;151.182;2023-07-31T02:33:29;5.72;;;0.80;;
20802;SDS011;10562;-33.856;151.182;2023-07-31T02:36:00;3.42;;;0.65;;
20802;SDS011;10562;-33.856;151.182;2023-07-31T02:38:31;3.45;;;0.65;;
20802;SDS011;10562;-33.856;151.182;2023-07-31T02:41:02;1.58;;;0.60;;
20802;SDS011;10562;-33.856;151.182;2023-07-31T02:43:35;5.20;;;0.80;;
20802;SDS011;10562;-33.856;151.182;2023-07-31T02:46:05;1.58;;;0.60;;
20802;SDS011;10562;-33.856;151.182;2023-07-31T02:48:36;3.17;;;0.60;;
20802;SDS011;10562;-33.856;151.182;2023-07-31T02:51:07;3.30;;;0.85;;
20802;SDS011;10562;-33.856;151.182;2023-07-31T02:53:38;3.75;;;0.65;;
20802;SDS011;10562;-33.856;151.182;2023-07-31T02:56:08;2.72;;;0.90;;
20802;SDS011;10562;-33.856;151.182;2023-07-31T02:58:41;2.10;;;0.68;;
20802;SDS011;10562;-33.856;151.182;2023-07-31T03:01:12;4.13;;;0.80;;
20802;SDS011;10562;-33.856;151.182;2023-07-31T03:03:43;2.00;;;0.65;;
20802;SDS011;10562;-33.856;151.182;2023-07-31T03:06:13;1.50;;;0.70;;
20802;SDS011;10562;-33.856;151.182;2023-07-31T03:08:44;5.18;;;0.70;;
20802;SDS011;10562;-33.856;151.182;2023-07-31T03:11:15;3.00;;;0.70;;
20802;SDS011;10562;-33.856;151.182;2023-07-31T03:13:48;3.88;;;0.80;;
20802;SDS011;10562;-33.856;151.182;2023-07-31T03:16:18;2.95;;;0.82;;
20802;SDS011;10562;-33.856;151.182;2023-07-31T03:18:49;3.17;;;0.60;;
20802;SDS011;10562;-33.856;151.182;2023-07-31T03:21:20;3.50;;;0.50;;
20802;SDS011;10562;-33.856;151.182;2023-07-31T03:23:52;1.73;;;0.60;;
20802;SDS011;10562;-33.856;151.182;2023-07-31T03:26:23;12.82;;;4.40;;
20802;SDS011;10562;-33.856;151.182;2023-07-31T03:28:57;4.88;;;1.38;;
20802;SDS011;10562;-33.856;151.182;2023-07-31T03:31:28;3.28;;;0.93;;
20802;SDS011;10562;-33.856;151.182;2023-07-31T03:33:59;1.20;;;0.70;;
20802;SDS011;10562;-33.856;151.182;2023-07-31T03:36:30;3.65;;;0.60;;
20802;SDS011;10562;-33.856;151.182;2023-07-31T03:39:01;1.60;;;0.77;;
20802;SDS011;10562;-33.856;151.182;2023-07-31T03:41:33;1.40;;;0.77;;
20802;SDS011;10562;-33.856;151.182;2023-07-31T03:44:05;3.97;;;1.00;;
20802;SDS011;10562;-33.856;151.182;2023-07-31T03:46:36;3.30;;;0.80;;
20802;SDS011;10562;-33.856;151.182;2023-07-31T03:49:07;6.10;;;0.80;;
20802;SDS011;10562;-33.856;151.182;2023-07-31T03:51:38;3.92;;;0.77;;
20802;SDS011;10562;-33.856;151.182;2023-07-31T03:54:09;1.45;;;0.80;;
20802;SDS011;10562;-33.856;151.182;2023-07-31T03:56:40;2.20;;;0.60;;
20802;SDS011;10562;-33.856;151.182;2023-07-31T03:59:12;1.27;;;0.60;;
20802;SDS011;10562;-33.856;151.182;2023-07-31T04:01:43;2.88;;;0.68;;
20802;SDS011;10562;-33.856;151.182;2023-07-31T04:04:14;2.50;;;0.60;;
20802;SDS011;10562;-33.856;151.182;2023-07-31T04:06:45;2.00;;;0.70;;
20802;SDS011;10562;-33.856;151.182;2023-07-31T04:09:16;2.58;;;0.70;;
20802;SDS011;10562;-33.856;151.182;2023-07-31T04:11:46;3.25;;;0.80;;
20802;SDS011;10562;-33.856;151.182;2023-07-31T04:14:19;3.63;;;0.63;;
20802;SDS011;10562;-33.856;151.182;2023-07-31T04:16:50;3.00;;;0.70;;
20802;SDS011;10562;-33.856;151.182;2023-07-31T04:19:21;1.77;;;0.60;;
20802;SDS011;10562;-33.856;151.182;2023-07-31T04:21:52;3.08;;;0.63;;
20802;SDS011;10562;-33.856;151.182;2023-07-31T04:24:23;1.33;;;0.80;;
20802;SDS011;10562;-33.856;151.182;2023-07-31T04:26:54;1.98;;;0.88;;
20802;SDS011;10562;-33.856;151.182;2023-07-31T04:29:29;2.08;;;0.80;;
20802;SDS011;10562;-33.856;151.182;2023-07-31T04:32:01;2.15;;;0.75;;
20802;SDS011;10562;-33.856;151.182;2023-07-31T04:34:32;1.33;;;0.63;;
20802;SDS011;10562;-33.856;151.182;2023-07-31T04:37:04;1.85;;;0.75;;
20802;SDS011;10562;-33.856;151.182;2023-07-31T04:39:35;4.53;;;0.70;;
20802;SDS011;10562;-33.856;151.182;2023-07-31T04:42:07;2.33;;;0.80;;
20802;SDS011;10562;-33.856;151.182;2023-07-31T04:44:40;1.10;;;0.68;;
20802;SDS011;10562;-33.856;151.182;2023-07-31T04:47:11;5.30;;;0.70;;
20802;SDS011;10562;-33.856;151.182;2023-07-31T04:49:41;3.13;;;0.77;;
20802;SDS011;10562;-33.856;151.182;2023-07-31T04:52:12;2.08;;;0.70;;
20802;SDS011;10562;-33.856;151.182;2023-07-31T04:54:43;3.25;;;0.70;;
20802;SDS011;10562;-33.856;151.182;2023-07-31T04:57:14;2.35;;;0.70;;
20802;SDS011;10562;-33.856;151.182;2023-07-31T04:59:47;2.47;;;0.77;;
20802;SDS011;10562;-33.856;151.182;2023-07-31T05:02:19;3.33;;;0.70;;
20802;SDS011;10562;-33.856;151.182;2023-07-31T05:04:50;3.38;;;0.70;;
20802;SDS011;10562;-33.856;151.182;2023-07-31T05:07:21;0.93;;;0.50;;
20802;SDS011;10562;-33.856;151.182;2023-07-31T05:09:52;1.95;;;0.98;;
20802;SDS011;10562;-33.856;151.182;2023-07-31T05:12:22;1.80;;;0.60;;
20802;SDS011;10562;-33.856;151.182;2023-07-31T05:14:55;6.28;;;0.90;;
20802;SDS011;10562;-33.856;151.182;2023-07-31T05:17:26;1.13;;;0.60;;
20802;SDS011;10562;-33.856;151.182;2023-07-31T05:19:57;2.20;;;0.60;;
20802;SDS011;10562;-33.856;151.182;2023-07-31T05:22:27;3.08;;;0.63;;
20802;SDS011;10562;-33.856;151.182;2023-07-31T05:24:58;2.03;;;0.68;;
20802;SDS011;10562;-33.856;151.182;2023-07-31T05:27:29;6.95;;;0.70;;
20802;SDS011;10562;-33.856;151.182;2023-07-31T05:30:02;1.63;;;0.60;;
20802;SDS011;10562;-33.856;151.182;2023-07-31T05:32:33;1.92;;;0.55;;
20802;SDS011;10562;-33.856;151.182;2023-07-31T05:35:04;2.80;;;0.70;;
20802;SDS011;10562;-33.856;151.182;2023-07-31T05:37:35;2.42;;;0.50;;
20802;SDS011;10562;-33.856;151.182;2023-07-31T05:40:07;5.05;;;0.70;;
20802;SDS011;10562;-33.856;151.182;2023-07-31T05:42:38;2.78;;;0.70;;
20802;SDS011;10562;-33.856;151.182;2023-07-31T05:45:11;1.15;;;0.60;;
20802;SDS011;10562;-33.856;151.182;2023-07-31T05:47:42;5.65;;;0.82;;
20802;SDS011;10562;-33.856;151.182;2023-07-31T05:50:12;1.85;;;0.70;;
20802;SDS011;10562;-33.856;151.182;2023-07-31T05:52:43;3.08;;;0.70;;
20802;SDS011;10562;-33.856;151.182;2023-07-31T05:55:14;2.75;;;0.70;;
20802;SDS011;10562;-33.856;151.182;2023-07-31T05:57:45;2.22;;;0.60;;
20802;SDS011;10562;-33.856;151.182;2023-07-31T06:00:18;2.53;;;0.85;;
20802;SDS011;10562;-33.856;151.182;2023-07-31T06:02:49;2.67;;;0.75;;
20802;SDS011;10562;-33.856;151.182;2023-07-31T06:05:19;3.85;;;0.80;;
20802;SDS011;10562;-33.856;151.182;2023-07-31T06:07:50;2.55;;;0.60;;
20802;SDS011;10562;-33.856;151.182;2023-07-31T06:10:21;2.35;;;0.68;;
20802;SDS011;10562;-33.856;151.182;2023-07-31T06:12:52;2.47;;;0.82;;
20802;SDS011;10562;-33.856;151.182;2023-07-31T06:15:25;2.70;;;0.60;;
20802;SDS011;10562;-33.856;151.182;2023-07-31T06:17:56;3.28;;;0.75;;
20802;SDS011;10562;-33.856;151.182;2023-07-31T06:20:28;2.65;;;0.75;;
20802;SDS011;10562;-33.856;151.182;2023-07-31T06:22:59;1.25;;;0.50;;
20802;SDS011;10562;-33.856;151.182;2023-07-31T06:25:30;3.60;;;0.60;;
20802;SDS011;10562;-33.856;151.182;2023-07-31T06:28:01;1.35;;;0.63;;
20802;SDS011;10562;-33.856;151.182;2023-07-31T06:30:34;1.10;;;0.60;;
20802;SDS011;10562;-33.856;151.182;2023-07-31T06:33:04;3.30;;;0.65;;
20802;SDS011;10562;-33.856;151.182;2023-07-31T06:35:35;3.25;;;0.73;;
20802;SDS011;10562;-33.856;151.182;2023-07-31T06:38:06;2.00;;;0.40;;
20802;SDS011;10562;-33.856;151.182;2023-07-31T06:40:37;2.38;;;0.55;;
20802;SDS011;10562;-33.856;151.182;2023-07-31T06:43:07;3.63;;;0.60;;
20802;SDS011;10562;-33.856;151.182;2023-07-31T06:45:40;1.88;;;0.57;;
20802;SDS011;10562;-33.856;151.182;2023-07-31T06:48:11;2.40;;;0.55;;
20802;SDS011;10562;-33.856;151.182;2023-07-31T06:50:42;2.40;;;0.60;;
20802;SDS011;10562;-33.856;151.182;2023-07-31T06:53:13;2.60;;;0.80;;
20802;SDS011;10562;-33.856;151.182;2023-07-31T06:55:44;1.08;;;0.60;;
20802;SDS011;10562;-33.856;151.182;2023-07-31T06:58:17;1.90;;;0.73;;
20802;SDS011;10562;-33.856;151.182;2023-07-31T07:00:50;2.83;;;0.70;;
20802;SDS011;10562;-33.856;151.182;2023-07-31T07:03:21;2.88;;;0.60;;
20802;SDS011;10562;-33.856;151.182;2023-07-31T07:05:52;4.18;;;0.60;;
20802;SDS011;10562;-33.856;151.182;2023-07-31T07:08:22;2.58;;;0.70;;
20802;SDS011;10562;-33.856;151.182;2023-07-31T07:10:53;2.97;;;0.73;;
20802;SDS011;10562;-33.856;151.182;2023-07-31T07:13:24;3.00;;;0.60;;
20802;SDS011;10562;-33.856;151.182;2023-07-31T07:15:57;2.35;;;0.80;;
20802;SDS011;10562;-33.856;151.182;2023-07-31T07:18:27;1.85;;;0.93;;
20802;SDS011;10562;-33.856;151.182;2023-07-31T07:20:58;2.67;;;0.60;;
20802;SDS011;10562;-33.856;151.182;2023-07-31T07:23:29;5.50;;;0.90;;
20802;SDS011;10562;-33.856;151.182;2023-07-31T07:26:00;2.90;;;1.00;;
20802;SDS011;10562;-33.856;151.182;2023-07-31T07:28:30;2.08;;;0.88;;
20802;SDS011;10562;-33.856;151.182;2023-07-31T07:31:05;4.60;;;1.00;;
20802;SDS011;10562;-33.856;151.182;2023-07-31T07:33:35;2.20;;;0.95;;
20802;SDS011;10562;-33.856;151.182;2023-07-31T07:36:06;1.90;;;0.90;;
20802;SDS011;10562;-33.856;151.182;2023-07-31T07:38:39;2.97;;;1.08;;
20802;SDS011;10562;-33.856;151.182;2023-07-31T07:41:09;2.67;;;1.00;;
20802;SDS011;10562;-33.856;151.182;2023-07-31T07:43:40;2.22;;;0.85;;
20802;SDS011;10562;-33.856;151.182;2023-07-31T07:46:13;4.57;;;0.80;;
20802;SDS011;10562;-33.856;151.182;2023-07-31T07:48:44;2.22;;;0.90;;
20802;SDS011;10562;-33.856;151.182;2023-07-31T07:51:14;2.80;;;1.23;;
20802;SDS011;10562;-33.856;151.182;2023-07-31T07:53:45;9.27;;;1.75;;
20802;SDS011;10562;-33.856;151.182;2023-07-31T07:56:16;4.20;;;1.40;;
20802;SDS011;10562;-33.856;151.182;2023-07-31T07:58:48;4.13;;;1.52;;
20802;SDS011;10562;-33.856;151.182;2023-07-31T08:01:21;7.05;;;1.90;;
20802;SDS011;10562;-33.856;151.182;2023-07-31T08:03:52;7.22;;;2.50;;
20802;SDS011;10562;-33.856;151.182;2023-07-31T08:06:23;8.50;;;2.63;;
20802;SDS011;10562;-33.856;151.182;2023-07-31T08:08:54;3.38;;;1.67;;
20802;SDS011;10562;-33.856;151.182;2023-07-31T08:11:24;3.15;;;1.60;;
20802;SDS011;10562;-33.856;151.182;2023-07-31T08:13:55;3.63;;;1.42;;
20802;SDS011;10562;-33.856;151.182;2023-07-31T08:16:28;5.55;;;1.50;;
20802;SDS011;10562;-33.856;151.182;2023-07-31T08:18:59;4.05;;;1.95;;
20802;SDS011;10562;-33.856;151.182;2023-07-31T08:21:29;4.63;;;2.00;;
20802;SDS011;10562;-33.856;151.182;2023-07-31T08:24:01;3.53;;;1.75;;
20802;SDS011;10562;-33.856;151.182;2023-07-31T08:26:32;6.97;;;2.00;;
20802;SDS011;10562;-33.856;151.182;2023-07-31T08:29:02;4.55;;;2.08;;
20802;SDS011;10562;-33.856;151.182;2023-07-31T08:31:35;5.53;;;2.35;;
20802;SDS011;10562;-33.856;151.182;2023-07-31T08:34:06;8.63;;;3.80;;
20802;SDS011;10562;-33.856;151.182;2023-07-31T08:36:36;5.68;;;3.17;;
20802;SDS011;10562;-33.856;151.182;2023-07-31T08:39:07;7.53;;;3.78;;
20802;SDS011;10562;-33.856;151.182;2023-07-31T08:41:38;7.10;;;3.40;;
20802;SDS011;10562;-33.856;151.182;2023-07-31T08:44:09;10.32;;;3.40;;
20802;SDS011;10562;-33.856;151.182;2023-07-31T08:46:43;4.80;;;1.85;;
20802;SDS011;10562;-33.856;151.182;2023-07-31T08:49:15;4.75;;;2.13;;
20802;SDS011;10562;-33.856;151.182;2023-07-31T08:51:49;8.10;;;3.28;;
20802;SDS011;10562;-33.856;151.182;2023-07-31T08:54:21;7.32;;;2.97;;
20802;SDS011;10562;-33.856;151.182;2023-07-31T08:56:55;8.85;;;2.90;;
20802;SDS011;10562;-33.856;151.182;2023-07-31T08:59:28;5.40;;;2.50;;
20802;SDS011;10562;-33.856;151.182;2023-07-31T09:02:03;4.38;;;1.98;;
20802;SDS011;10562;-33.856;151.182;2023-07-31T09:04:37;4.35;;;2.33;;
20802;SDS011;10562;-33.856;151.182;2023-07-31T09:07:08;4.78;;;2.28;;
20802;SDS011;10562;-33.856;151.182;2023-07-31T09:09:39;3.33;;;1.83;;
20802;SDS011;10562;-33.856;151.182;2023-07-31T09:12:10;3.30;;;1.48;;
20802;SDS011;10562;-33.856;151.182;2023-07-31T09:14:41;3.78;;;1.92;;
20802;SDS011;10562;-33.856;151.182;2023-07-31T09:17:16;2.55;;;1.65;;
20802;SDS011;10562;-33.856;151.182;2023-07-31T09:20:00;4.78;;;2.20;;
20802;SDS011;10562;-33.856;151.182;2023-07-31T09:22:44;6.13;;;2.47;;
20802;SDS011;10562;-33.856;151.182;2023-07-31T09:25:15;7.18;;;2.50;;
20802;SDS011;10562;-33.856;151.182;2023-07-31T09:27:48;7.50;;;3.22;;
20802;SDS011;10562;-33.856;151.182;2023-07-31T09:30:19;7.00;;;3.25;;
20802;SDS011;10562;-33.856;151.182;2023-07-31T09:33:00;6.78;;;3.20;;
20802;SDS011;10562;-33.856;151.182;2023-07-31T09:35:33;6.05;;;3.20;;
20802;SDS011;10562;-33.856;151.182;2023-07-31T09:38:04;9.82;;;3.88;;
20802;SDS011;10562;-33.856;151.182;2023-07-31T09:40:37;9.75;;;3.90;;
20802;SDS011;10562;-33.856;151.182;2023-07-31T09:43:09;7.38;;;4.05;;
20802;SDS011;10562;-33.856;151.182;2023-07-31T09:45:41;7.63;;;4.25;;
20802;SDS011;10562;-33.856;151.182;2023-07-31T09:48:15;29.00;;;15.82;;
20802;SDS011;10562;-33.856;151.182;2023-07-31T09:50:46;21.00;;;11.48;;
20802;SDS011;10562;-33.856;151.182;2023-07-31T09:53:18;23.80;;;12.88;;
20802;SDS011;10562;-33.856;151.182;2023-07-31T09:55:58;18.17;;;8.07;;
20802;SDS011;10562;-33.856;151.182;2023-07-31T09:58:30;15.77;;;5.63;;
20802;SDS011;10562;-33.856;151.182;2023-07-31T10:01:04;11.02;;;4.78;;
20802;SDS011;10562;-33.856;151.182;2023-07-31T10:03:38;16.73;;;5.65;;
20802;SDS011;10562;-33.856;151.182;2023-07-31T10:06:09;14.93;;;4.65;;
20802;SDS011;10562;-33.856;151.182;2023-07-31T10:08:42;36.65;;;17.63;;
20802;SDS011;10562;-33.856;151.182;2023-07-31T10:11:15;16.88;;;7.70;;
20802;SDS011;10562;-33.856;151.182;2023-07-31T10:13:47;10.32;;;4.63;;
20802;SDS011;10562;-33.856;151.182;2023-07-31T10:16:18;11.85;;;4.70;;
20802;SDS011;10562;-33.856;151.182;2023-07-31T10:18:51;13.77;;;4.70;;
20802;SDS011;10562;-33.856;151.182;2023-07-31T10:21:23;11.70;;;4.28;;
20802;SDS011;10562;-33.856;151.182;2023-07-31T10:23:54;13.05;;;4.63;;
20802;SDS011;10562;-33.856;151.182;2023-07-31T10:26:25;11.05;;;4.15;;
20802;SDS011;10562;-33.856;151.182;2023-07-31T10:28:57;10.68;;;4.00;;
20802;SDS011;10562;-33.856;151.182;2023-07-31T10:31:28;8.55;;;3.75;;
20802;SDS011;10562;-33.856;151.182;2023-07-31T10:34:01;10.68;;;3.75;;
20802;SDS011;10562;-33.856;151.182;2023-07-31T10:36:32;8.98;;;4.72;;
20802;SDS011;10562;-33.856;151.182;2023-07-31T10:39:04;13.55;;;5.28;;
20802;SDS011;10562;-33.856;151.182;2023-07-31T10:41:55;9.45;;;4.07;;
20802;SDS011;10562;-33.856;151.182;2023-07-31T10:44:26;10.90;;;4.10;;
20802;SDS011;10562;-33.856;151.182;2023-07-31T10:46:57;8.20;;;3.53;;
20802;SDS011;10562;-33.856;151.182;2023-07-31T10:49:34;8.27;;;3.40;;
20802;SDS011;10562;-33.856;151.182;2023-07-31T10:52:09;8.60;;;3.70;;
20802;SDS011;10562;-33.856;151.182;2023-07-31T10:54:42;12.80;;;3.58;;
20802;SDS011;10562;-33.856;151.182;2023-07-31T10:57:22;7.72;;;3.33;;
20802;SDS011;10562;-33.856;151.182;2023-07-31T10:59:53;10.95;;;3.70;;
20802;SDS011;10562;-33.856;151.182;2023-07-31T11:02:59;7.65;;;3.40;;
20802;SDS011;10562;-33.856;151.182;2023-07-31T11:05:52;6.57;;;3.20;;
20802;SDS011;10562;-33.856;151.182;2023-07-31T11:08:30;6.50;;;3.13;;
20802;SDS011;10562;-33.856;151.182;2023-07-31T11:11:07;6.60;;;3.15;;
20802;SDS011;10562;-33.856;151.182;2023-07-31T11:13:43;6.05;;;2.83;;
20802;SDS011;10562;-33.856;151.182;2023-07-31T11:16:15;7.22;;;3.00;;
20802;SDS011;10562;-33.856;151.182;2023-07-31T11:18:47;8.25;;;3.50;;
20802;SDS011;10562;-33.856;151.182;2023-07-31T11:21:21;9.40;;;3.72;;
20802;SDS011;10562;-33.856;151.182;2023-07-31T11:23:53;10.80;;;3.35;;
20802;SDS011;10562;-33.856;151.182;2023-07-31T11:26:25;10.75;;;3.25;;
20802;SDS011;10562;-33.856;151.182;2023-07-31T11:28:57;7.63;;;2.60;;
20802;SDS011;10562;-33.856;151.182;2023-07-31T11:31:27;10.75;;;2.60;;
20802;SDS011;10562;-33.856;151.182;2023-07-31T11:34:06;6.03;;;2.65;;
20802;SDS011;10562;-33.856;151.182;2023-07-31T11:36:39;7.50;;;2.58;;
20802;SDS011;10562;-33.856;151.182;2023-07-31T11:39:10;5.70;;;2.25;;
20802;SDS011;10562;-33.856;151.182;2023-07-31T11:41:41;5.82;;;2.40;;
20802;SDS011;10562;-33.856;151.182;2023-07-31T11:44:11;6.95;;;2.50;;
20802;SDS011;10562;-33.856;151.182;2023-07-31T11:46:42;6.55;;;2.60;;
20802;SDS011;10562;-33.856;151.182;2023-07-31T11:49:13;7.35;;;2.60;;
20802;SDS011;10562;-33.856;151.182;2023-07-31T11:51:47;9.55;;;2.40;;
20802;SDS011;10562;-33.856;151.182;2023-07-31T11:54:18;6.95;;;2.60;;
20802;SDS011;10562;-33.856;151.182;2023-07-31T11:56:49;5.15;;;2.38;;
20802;SDS011;10562;-33.856;151.182;2023-07-31T11:59:19;5.80;;;2.38;;
20802;SDS011;10562;-33.856;151.182;2023-07-31T12:01:50;6.13;;;2.30;;
20802;SDS011;10562;-33.856;151.182;2023-07-31T12:04:22;4.18;;;2.10;;
20802;SDS011;10562;-33.856;151.182;2023-07-31T12:06:56;6.82;;;2.03;;
20802;SDS011;10562;-33.856;151.182;2023-07-31T12:09:29;7.55;;;2.30;;
20802;SDS011;10562;-33.856;151.182;2023-07-31T12:12:03;8.90;;;2.10;;
20802;SDS011;10562;-33.856;151.182;2023-07-31T12:14:38;5.50;;;2.30;;
20802;SDS011;10562;-33.856;151.182;2023-07-31T12:17:12;7.70;;;2.30;;
20802;SDS011;10562;-33.856;151.182;2023-07-31T12:19:43;6.57;;;2.45;;
20802;SDS011;10562;-33.856;151.182;2023-07-31T12:22:16;5.00;;;2.40;;
20802;SDS011;10562;-33.856;151.182;2023-07-31T12:24:47;5.13;;;2.00;;
20802;SDS011;10562;-33.856;151.182;2023-07-31T12:27:18;7.30;;;2.42;;
20802;SDS011;10562;-33.856;151.182;2023-07-31T12:29:51;5.50;;;2.65;;
20802;SDS011;10562;-33.856;151.182;2023-07-31T12:32:21;7.00;;;2.95;;
20802;SDS011;10562;-33.856;151.182;2023-07-31T12:34:54;8.15;;;2.78;;
20802;SDS011;10562;-33.856;151.182;2023-07-31T12:37:31;5.88;;;2.83;;
20802;SDS011;10562;-33.856;151.182;2023-07-31T12:40:03;5.63;;;2.70;;
20802;SDS011;10562;-33.856;151.182;2023-07-31T12:42:34;8.88;;;2.63;;
20802;SDS011;10562;-33.856;151.182;2023-07-31T12:45:05;6.55;;;2.78;;
20802;SDS011;10562;-33.856;151.182;2023-07-31T12:47:36;9.32;;;2.80;;
20802;SDS011;10562;-33.856;151.182;2023-07-31T12:50:07;5.18;;;2.40;;
20802;SDS011;10562;-33.856;151.182;2023-07-31T12:52:41;5.68;;;2.28;;
20802;SDS011;10562;-33.856;151.182;2023-07-31T12:55:12;5.32;;;2.15;;
20802;SDS011;10562;-33.856;151.182;2023-07-31T12:57:44;5.18;;;2.45;;
20802;SDS011;10562;-33.856;151.182;2023-07-31T13:00:15;9.40;;;2.40;;
20802;SDS011;10562;-33.856;151.182;2023-07-31T13:02:46;8.70;;;2.33;;
20802;SDS011;10562;-33.856;151.182;2023-07-31T13:05:17;5.45;;;2.13;;
20802;SDS011;10562;-33.856;151.182;2023-07-31T13:07:50;6.70;;;2.25;;
20802;SDS011;10562;-33.856;151.182;2023-07-31T13:10:22;3.85;;;1.83;;
20802;SDS011;10562;-33.856;151.182;2023-07-31T13:12:53;5.55;;;2.08;;
20802;SDS011;10562;-33.856;151.182;2023-07-31T13:15:24;8.00;;;1.90;;
20802;SDS011;10562;-33.856;151.182;2023-07-31T13:17:55;4.82;;;1.90;;
20802;SDS011;10562;-33.856;151.182;2023-07-31T13:20:26;6.03;;;1.77;;
20802;SDS011;10562;-33.856;151.182;2023-07-31T13:22:58;6.80;;;1.92;;
20802;SDS011;10562;-33.856;151.182;2023-07-31T13:25:29;3.92;;;1.50;;
20802;SDS011;10562;-33.856;151.182;2023-07-31T13:28:00;7.38;;;1.95;;
20802;SDS011;10562;-33.856;151.182;2023-07-31T13:30:31;4.25;;;1.90;;
20802;SDS011;10562;-33.856;151.182;2023-07-31T13:33:01;8.23;;;2.00;;
20802;SDS011;10562;-33.856;151.182;2023-07-31T13:35:32;4.85;;;1.63;;
20802;SDS011;10562;-33.856;151.182;2023-07-31T13:38:05;7.78;;;1.48;;
20802;SDS011;10562;-33.856;151.182;2023-07-31T13:40:36;5.20;;;1.40;;
20802;SDS011;10562;-33.856;151.182;2023-07-31T13:43:07;4.55;;;1.45;;
20802;SDS011;10562;-33.856;151.182;2023-07-31T13:45:37;3.05;;;1.50;;
20802;SDS011;10562;-33.856;151.182;2023-07-31T13:48:08;5.43;;;1.25;;
20802;SDS011;10562;-33.856;151.182;2023-07-31T13:50:39;4.93;;;1.58;;
20802;SDS011;10562;-33.856;151.182;2023-07-31T13:53:12;3.83;;;1.73;;
20802;SDS011;10562;-33.856;151.182;2023-07-31T13:55:42;4.75;;;1.40;;
20802;SDS011;10562;-33.856;151.182;2023-07-31T13:58:15;5.00;;;1.50;;
20802;SDS011;10562;-33.856;151.182;2023-07-31T14:00:46;5.95;;;1.67;;
20802;SDS011;10562;-33.856;151.182;2023-07-31T14:03:17;4.00;;;1.52;;
20802;SDS011;10562;-33.856;151.182;2023-07-31T14:05:47;2.80;;;1.50;;
20802;SDS011;10562;-33.856;151.182;2023-07-31T14:08:20;3.28;;;1.40;;
20802;SDS011;10562;-33.856;151.182;2023-07-31T14:10:51;3.83;;;1.30;;
20802;SDS011;10562;-33.856;151.182;2023-07-31T14:13:22;4.68;;;1.30;;
20802;SDS011;10562;-33.856;151.182;2023-07-31T14:15:53;6.07;;;1.23;;
20802;SDS011;10562;-33.856;151.182;2023-07-31T14:18:23;2.25;;;1.23;;
20802;SDS011;10562;-33.856;151.182;2023-07-31T14:20:54;5.53;;;1.33;;
20802;SDS011;10562;-33.856;151.182;2023-07-31T14:23:27;6.05;;;1.35;;
20802;SDS011;10562;-33.856;151.182;2023-07-31T14:25:58;4.38;;;1.20;;
20802;SDS011;10562;-33.856;151.182;2023-07-31T14:28:28;5.78;;;1.42;;
20802;SDS011;10562;-33.856;151.182;2023-07-31T14:30:59;4.80;;;1.15;;
20802;SDS011;10562;-33.856;151.182;2023-07-31T14:33:30;3.55;;;1.00;;
20802;SDS011;10562;-33.856;151.182;2023-07-31T14:36:01;4.25;;;1.30;;